createdAt,value
2018-03-28T00:02:26.696Z,7.40
2018-03-28T00:04:55.915Z,7.70
2018-03-28T00:07:24.143Z,8.03
2018-03-28T00:09:53.352Z,7.00
2018-03-28T00:12:21.583Z,7.67
2018-03-28T00:14:49.816Z,7.90
2018-03-28T00:17:18.087Z,10.53
2018-03-28T00:19:46.636Z,8.40
2018-03-28T00:22:14.885Z,6.97
2018-03-28T00:24:43.134Z,7.17
2018-03-28T00:27:11.385Z,7.20
2018-03-28T00:29:40.389Z,9.10
2018-03-28T00:32:08.851Z,6.60
2018-03-28T00:34:37.654Z,8.00
2018-03-28T00:37:05.896Z,7.10
2018-03-28T00:39:34.277Z,8.83
2018-03-28T00:42:02.665Z,7.80
2018-03-28T00:44:31.076Z,7.07
2018-03-28T00:47:00.291Z,8.70
2018-03-28T00:49:28.609Z,7.77
2018-03-28T00:51:56.811Z,7.80
2018-03-28T00:54:25.802Z,9.10
2018-03-28T00:56:54.777Z,8.10
2018-03-28T00:59:23.009Z,7.87
2018-03-28T01:01:51.252Z,7.67
2018-03-28T01:04:19.703Z,8.13
2018-03-28T01:06:49.638Z,8.10
2018-03-28T01:09:17.869Z,8.60
2018-03-28T01:11:46.139Z,8.63
2018-03-28T01:14:16.081Z,10.00
2018-03-28T01:16:44.328Z,8.93
2018-03-28T01:19:12.569Z,8.00
2018-03-28T01:21:40.816Z,9.37
2018-03-28T01:24:09.121Z,11.67
2018-03-28T01:26:37.397Z,10.23
2018-03-28T01:29:05.668Z,11.53
2018-03-28T01:31:33.978Z,10.90
2018-03-28T01:34:02.243Z,12.03
2018-03-28T01:36:30.541Z,12.30
2018-03-28T01:38:58.901Z,13.97
2018-03-28T01:41:27.138Z,15.30
2018-03-28T01:43:55.383Z,14.47
2018-03-28T01:46:23.617Z,16.70
2018-03-28T01:48:51.887Z,14.80
2018-03-28T01:51:20.152Z,16.50
2018-03-28T01:53:49.170Z,21.43
2018-03-28T01:56:17.465Z,21.37
2018-03-28T01:58:46.405Z,19.57
2018-03-28T02:01:15.441Z,22.87
2018-03-28T02:03:43.757Z,21.40
2018-03-28T02:06:12.019Z,23.20
2018-03-28T02:08:40.273Z,22.63
2018-03-28T02:11:08.547Z,29.87
2018-03-28T02:13:36.804Z,29.30
2018-03-28T02:16:05.041Z,33.43
2018-03-28T02:18:34.071Z,36.00
2018-03-28T02:21:02.349Z,39.07
2018-03-28T02:23:30.659Z,48.73
2018-03-28T02:25:58.904Z,45.50
2018-03-28T02:28:27.601Z,36.10
2018-03-28T02:30:55.870Z,42.63
2018-03-28T02:33:24.141Z,43.93
2018-03-28T02:35:52.405Z,50.03
2018-03-28T02:38:20.673Z,44.73
2018-03-28T02:40:48.933Z,39.63
2018-03-28T02:43:17.210Z,47.23
2018-03-28T02:45:45.465Z,50.93
2018-03-28T02:48:13.727Z,52.10
2018-03-28T02:50:41.955Z,56.23
2018-03-28T02:53:10.977Z,60.07
2018-03-28T02:55:39.249Z,54.20
2018-03-28T02:58:07.517Z,53.50
2018-03-28T03:00:36.502Z,57.83
2018-03-28T03:03:05.535Z,54.80
2018-03-28T03:05:34.771Z,56.03
2018-03-28T03:08:02.987Z,57.30
2018-03-28T03:10:31.252Z,65.37
2018-03-28T03:12:59.490Z,60.53
2018-03-28T03:15:28.077Z,67.17
2018-03-28T03:17:56.281Z,61.03
2018-03-28T03:20:25.047Z,58.67
2018-03-28T03:22:54.788Z,65.90
2018-03-28T03:25:23.230Z,49.83
2018-03-28T03:27:52.995Z,54.33
2018-03-28T03:30:21.266Z,49.90
2018-03-28T03:32:49.762Z,62.17
2018-03-28T03:35:18.094Z,59.90
2018-03-28T03:37:47.130Z,52.27
2018-03-28T03:40:15.402Z,52.00
2018-03-28T03:42:43.681Z,51.50
2018-03-28T03:45:12.496Z,51.13
2018-03-28T03:47:40.762Z,46.57
2018-03-28T03:50:09.008Z,47.87
2018-03-28T03:52:37.304Z,47.50
2018-03-28T03:55:05.541Z,43.40
2018-03-28T03:57:34.746Z,51.13
2018-03-28T04:00:03.020Z,50.50
2018-03-28T04:02:31.246Z,46.93
2018-03-28T04:04:59.514Z,43.10
2018-03-28T04:07:28.539Z,50.67
2018-03-28T04:09:56.785Z,50.40
2018-03-28T04:12:25.760Z,46.43
2018-03-28T04:14:54.001Z,53.90
2018-03-28T04:17:23.958Z,53.07
2018-03-28T04:19:52.301Z,54.73
2018-03-28T04:22:20.593Z,53.17
2018-03-28T04:24:48.877Z,53.20
2018-03-28T04:27:17.314Z,53.63
2018-03-28T04:29:45.788Z,48.33
2018-03-28T04:32:14.065Z,53.30
2018-03-28T04:34:42.418Z,45.43
2018-03-28T04:37:10.678Z,45.90
2018-03-28T04:39:38.958Z,50.80
2018-03-28T04:42:07.377Z,45.93
2018-03-28T04:44:36.501Z,53.47
2018-03-28T04:47:04.952Z,51.33
2018-03-28T04:49:33.228Z,48.57
2018-03-28T04:52:01.465Z,56.07
2018-03-28T04:54:30.203Z,49.73
2018-03-28T04:56:59.233Z,55.07
2018-03-28T04:59:28.281Z,51.20
2018-03-28T05:01:56.549Z,52.20
2018-03-28T05:04:25.793Z,60.23
2018-03-28T05:06:54.065Z,49.60
2018-03-28T05:09:22.330Z,51.97
2018-03-28T05:11:51.354Z,49.07
2018-03-28T05:14:20.457Z,52.00
2018-03-28T05:16:48.736Z,47.10
2018-03-28T05:19:16.977Z,51.80
2018-03-28T05:21:45.292Z,47.60
2018-03-28T05:24:13.572Z,42.60
2018-03-28T05:26:41.863Z,52.57
2018-03-28T05:29:10.109Z,47.40
2018-03-28T05:31:38.389Z,43.30
2018-03-28T05:34:06.636Z,44.83
2018-03-28T05:36:34.928Z,47.10
2018-03-28T05:39:03.173Z,46.60
2018-03-28T05:41:31.449Z,49.47
2018-03-28T05:43:59.969Z,53.63
2018-03-28T05:46:36.235Z,50.43
2018-03-28T05:49:04.508Z,46.33
2018-03-28T05:51:32.745Z,49.53
2018-03-28T05:54:00.991Z,41.77
2018-03-28T05:56:30.124Z,57.90
2018-03-28T05:58:58.384Z,45.70
2018-03-28T06:01:28.142Z,46.80
2018-03-28T06:03:56.694Z,43.67
2018-03-28T06:06:27.051Z,44.97
2018-03-28T06:08:55.393Z,43.53
2018-03-28T06:11:23.790Z,39.73
2018-03-28T06:13:52.067Z,37.27
2018-03-28T06:16:20.414Z,44.07
2018-03-28T06:18:48.639Z,40.43
2018-03-28T06:21:16.913Z,47.27
2018-03-28T06:23:45.164Z,42.33
2018-03-28T06:26:13.436Z,46.80
2018-03-28T06:28:41.686Z,53.00
2018-03-28T06:31:10.246Z,49.87
2018-03-28T06:33:38.693Z,49.23
2018-03-28T06:36:06.994Z,58.30
2018-03-28T06:38:36.966Z,54.13
2018-03-28T06:41:06.022Z,49.03
2018-03-28T06:43:34.422Z,44.93
2018-03-28T06:46:02.677Z,44.13
2018-03-28T06:48:31.385Z,48.93
2018-03-28T06:50:59.866Z,44.57
2018-03-28T06:53:28.093Z,43.67
2018-03-28T06:55:56.367Z,46.93
2018-03-28T06:58:24.810Z,48.87
2018-03-28T07:00:53.037Z,44.30
2018-03-28T07:03:21.434Z,48.40
2018-03-28T07:05:49.729Z,45.50
2018-03-28T07:08:17.966Z,45.57
2018-03-28T07:10:47.131Z,43.80
2018-03-28T07:13:15.411Z,38.30
2018-03-28T07:15:43.725Z,48.63
2018-03-28T07:18:12.017Z,43.93
2018-03-28T07:20:40.338Z,50.00
2018-03-28T07:23:08.523Z,48.37
2018-03-28T07:25:36.764Z,43.17
2018-03-28T07:28:05.042Z,49.60
2018-03-28T07:30:33.517Z,42.80
2018-03-28T07:33:01.795Z,44.30
2018-03-28T07:35:30.087Z,48.90
2018-03-28T07:37:58.320Z,62.10
2018-03-28T07:40:26.636Z,51.60
2018-03-28T07:42:54.896Z,57.03
2018-03-28T07:45:23.142Z,50.20
2018-03-28T07:47:51.406Z,56.13
2018-03-28T07:50:19.657Z,51.30
2018-03-28T07:52:47.927Z,53.00
2018-03-28T07:55:16.164Z,48.13
2018-03-28T07:57:44.666Z,51.73
2018-03-28T08:00:13.388Z,48.10
2018-03-28T08:02:41.652Z,45.97
2018-03-28T08:05:10.667Z,48.10
2018-03-28T08:07:38.925Z,52.73
2018-03-28T08:10:07.228Z,59.77
2018-03-28T08:12:35.493Z,52.20
2018-03-28T08:15:03.750Z,53.90
2018-03-28T08:17:32.799Z,56.83
2018-03-28T08:20:01.074Z,54.23
2018-03-28T08:22:30.100Z,55.43
2018-03-28T08:24:59.159Z,45.03
2018-03-28T08:27:27.415Z,42.83
2018-03-28T08:29:55.679Z,44.13
2018-03-28T08:32:23.922Z,41.10
2018-03-28T08:34:52.929Z,47.87
2018-03-28T08:37:21.200Z,43.60
2018-03-28T08:39:49.456Z,44.07
2018-03-28T08:42:17.687Z,48.17
2018-03-28T08:44:46.022Z,44.03
2018-03-28T08:47:14.490Z,37.77
2018-03-28T08:49:42.693Z,44.03
2018-03-28T08:52:11.078Z,42.67
2018-03-28T08:54:39.360Z,38.70
2018-03-28T08:57:12.098Z,39.30
2018-03-28T08:59:40.375Z,44.50
2018-03-28T09:02:09.420Z,33.47
2018-03-28T09:04:37.974Z,40.57
2018-03-28T09:07:06.437Z,37.07
2018-03-28T09:09:34.661Z,40.87
2018-03-28T09:12:03.778Z,39.00
2018-03-28T09:14:32.041Z,47.10
2018-03-28T09:17:00.322Z,41.20
2018-03-28T09:19:28.643Z,39.30
2018-03-28T09:21:56.860Z,37.70
2018-03-28T09:24:25.391Z,40.30
2018-03-28T09:26:53.621Z,39.27
2018-03-28T09:29:22.353Z,42.43
2018-03-28T09:31:50.652Z,39.50
2018-03-28T09:34:19.656Z,37.23
2018-03-28T09:36:48.742Z,39.00
2018-03-28T09:39:16.980Z,43.80
2018-03-28T09:41:46.128Z,44.53
2018-03-28T09:44:14.377Z,43.27
2018-03-28T09:46:42.655Z,43.47
2018-03-28T09:49:10.905Z,48.37
2018-03-28T09:51:39.149Z,47.73
2018-03-28T09:54:07.430Z,46.07
2018-03-28T09:56:35.677Z,42.37
2018-03-28T09:59:03.944Z,43.23
2018-03-28T10:01:32.965Z,41.77
2018-03-28T10:04:07.586Z,41.07
2018-03-28T10:06:35.885Z,32.77
2018-03-28T10:09:05.056Z,27.63
2018-03-28T10:11:33.336Z,28.30
2018-03-28T10:14:01.837Z,24.80
2018-03-28T10:16:34.209Z,24.90
2018-03-28T10:19:02.461Z,25.23
2018-03-28T10:21:30.719Z,27.60
2018-03-28T10:23:59.752Z,26.70
2018-03-28T10:26:28.108Z,26.60
2018-03-28T10:28:56.365Z,32.10
2018-03-28T10:31:24.644Z,28.17
2018-03-28T10:33:52.913Z,26.40
2018-03-28T10:36:22.114Z,30.00
2018-03-28T10:38:50.391Z,28.73
2018-03-28T10:41:18.617Z,29.10
2018-03-28T10:43:47.621Z,31.50
2018-03-28T10:46:15.861Z,32.23
2018-03-28T10:48:44.109Z,36.00
2018-03-28T10:51:12.397Z,31.30
2018-03-28T10:53:41.510Z,30.13
2018-03-28T10:56:09.773Z,33.57
2018-03-28T10:58:38.175Z,29.67
2018-03-28T11:01:07.183Z,31.93
2018-03-28T11:03:35.434Z,32.47
2018-03-28T11:06:03.706Z,31.10
2018-03-28T11:08:31.990Z,30.60
2018-03-28T11:11:00.266Z,31.23
2018-03-28T11:13:28.541Z,35.67
2018-03-28T11:15:56.806Z,31.43
2018-03-28T11:18:25.080Z,35.77
2018-03-28T11:20:53.371Z,33.03
2018-03-28T11:23:21.638Z,33.60
2018-03-28T11:25:50.715Z,32.07
2018-03-28T11:28:18.972Z,38.80
2018-03-28T11:30:47.352Z,37.20
2018-03-28T11:33:15.707Z,39.60
2018-03-28T11:35:44.074Z,35.53
2018-03-28T11:38:12.332Z,35.87
2018-03-28T11:40:40.633Z,33.63
2018-03-28T11:43:08.864Z,41.67
2018-03-28T11:45:37.902Z,44.17
2018-03-28T11:48:06.146Z,31.87
2018-03-28T11:50:34.938Z,34.83
2018-03-28T11:53:03.297Z,32.17
2018-03-28T11:55:31.523Z,36.33
2018-03-28T11:57:59.826Z,33.73
2018-03-28T12:00:28.035Z,38.80
2018-03-28T12:02:56.300Z,31.67
2018-03-28T12:05:24.590Z,29.97
2018-03-28T12:07:52.882Z,31.63
2018-03-28T12:10:21.262Z,30.43
2018-03-28T12:12:49.538Z,31.60
2018-03-28T12:15:19.523Z,31.40
2018-03-28T12:17:48.735Z,33.13
2018-03-28T12:20:16.978Z,30.87
2018-03-28T12:22:45.269Z,30.13
2018-03-28T12:25:13.556Z,33.07
2018-03-28T12:27:41.818Z,30.70
2018-03-28T12:30:10.118Z,27.13
2018-03-28T12:32:38.460Z,28.37
2018-03-28T12:35:06.773Z,27.40
2018-03-28T12:37:35.820Z,24.50
2018-03-28T12:40:04.087Z,19.50
2018-03-28T12:42:32.589Z,23.43
2018-03-28T12:45:01.714Z,20.97
2018-03-28T12:47:30.002Z,18.93
2018-03-28T12:49:59.258Z,20.97
2018-03-28T12:52:27.479Z,23.20
2018-03-28T12:54:55.905Z,24.03
2018-03-28T12:57:24.175Z,19.93
2018-03-28T12:59:52.485Z,19.63
2018-03-28T13:02:21.575Z,21.60
2018-03-28T13:04:51.359Z,21.20
2018-03-28T13:07:19.650Z,22.60
2018-03-28T13:09:48.140Z,22.50
2018-03-28T13:12:16.468Z,24.90
2018-03-28T13:14:44.795Z,19.43
2018-03-28T13:17:13.086Z,22.70
2018-03-28T13:19:42.211Z,21.87
2018-03-28T13:22:11.409Z,25.67
2018-03-28T13:24:39.691Z,26.63
2018-03-28T13:27:07.937Z,24.27
2018-03-28T13:29:36.209Z,21.07
2018-03-28T13:32:05.271Z,23.90
2018-03-28T13:34:33.614Z,20.77
2018-03-28T13:37:01.926Z,27.10
2018-03-28T13:39:31.037Z,21.77
2018-03-28T13:42:00.133Z,27.20
2018-03-28T13:44:28.980Z,22.77
2018-03-28T13:46:57.229Z,18.80
2018-03-28T13:49:25.505Z,18.87
2018-03-28T13:51:53.797Z,22.40
2018-03-28T13:54:22.052Z,17.00
2018-03-28T13:56:50.327Z,14.53
2018-03-28T13:59:18.564Z,12.33
2018-03-28T14:01:46.877Z,15.13
2018-03-28T14:04:15.897Z,12.47
2018-03-28T14:06:44.199Z,11.57
2018-03-28T14:09:12.449Z,13.20
2018-03-28T14:11:40.701Z,9.90
2018-03-28T14:14:09.735Z,11.90
2018-03-28T14:16:37.970Z,11.77
2018-03-28T14:19:06.432Z,9.50
2018-03-28T14:21:34.714Z,10.90
2018-03-28T14:24:03.803Z,10.70
2018-03-28T14:26:32.028Z,9.80
2018-03-28T14:29:00.382Z,11.17
2018-03-28T14:31:28.835Z,10.57
2018-03-28T14:33:57.115Z,10.43
2018-03-28T14:36:25.350Z,9.73
2018-03-28T14:38:53.670Z,9.67
2018-03-28T14:41:21.915Z,6.73
2018-03-28T14:43:50.348Z,7.70
2018-03-28T14:46:18.606Z,5.57
2018-03-28T14:48:47.622Z,8.47
2018-03-28T14:51:15.893Z,5.03
2018-03-28T14:53:44.422Z,3.90
2018-03-28T14:56:12.725Z,4.10
2018-03-28T14:58:40.965Z,4.40
2018-03-28T15:01:09.199Z,4.50
2018-03-28T15:03:37.482Z,4.30
2018-03-28T15:06:05.779Z,3.30
2018-03-28T15:08:35.135Z,6.87
2018-03-28T15:11:03.413Z,3.57
2018-03-28T15:13:31.788Z,5.07
2018-03-28T15:16:04.120Z,2.97
2018-03-28T15:18:32.451Z,4.03
2018-03-28T15:21:00.689Z,4.13
2018-03-28T15:23:28.941Z,5.90
2018-03-28T15:25:57.194Z,5.00
2018-03-28T15:28:25.581Z,3.30
2018-03-28T15:30:54.678Z,6.00
2018-03-28T15:33:22.924Z,5.63
2018-03-28T15:35:51.206Z,2.83
2018-03-28T15:38:19.706Z,3.83
2018-03-28T15:40:48.108Z,4.90
2018-03-28T15:43:16.403Z,3.30
2018-03-28T15:45:45.241Z,4.30
2018-03-28T15:48:14.365Z,3.50
2018-03-28T15:50:42.985Z,3.37
2018-03-28T15:53:11.281Z,4.47
2018-03-28T15:55:39.561Z,4.10
2018-03-28T15:58:07.841Z,5.03
2018-03-28T16:00:36.265Z,4.83
2018-03-28T16:03:04.686Z,4.33
2018-03-28T16:05:32.898Z,4.37
2018-03-28T16:08:02.047Z,4.90
2018-03-28T16:10:30.301Z,5.00
2018-03-28T16:12:58.592Z,4.03
2018-03-28T16:15:26.934Z,4.80
2018-03-28T16:17:55.280Z,4.33
2018-03-28T16:20:24.300Z,4.10
2018-03-28T16:22:52.557Z,4.40
2018-03-28T16:25:21.670Z,4.87
2018-03-28T16:27:49.999Z,4.00
2018-03-28T16:30:18.220Z,5.10
2018-03-28T16:32:46.449Z,5.37
2018-03-28T16:35:14.807Z,6.70
2018-03-28T16:37:43.073Z,5.03
2018-03-28T16:40:11.339Z,5.40
2018-03-28T16:42:39.817Z,5.00
2018-03-28T16:45:08.086Z,4.57
2018-03-28T16:47:36.314Z,4.83
2018-03-28T16:50:05.361Z,6.63
2018-03-28T16:52:34.449Z,5.30
2018-03-28T16:55:02.897Z,4.43
2018-03-28T16:57:31.172Z,5.70
2018-03-28T16:59:59.428Z,5.87
2018-03-28T17:02:27.936Z,5.63
2018-03-28T17:04:56.950Z,4.70
2018-03-28T17:07:25.938Z,5.50
2018-03-28T17:09:54.193Z,4.17
2018-03-28T17:12:22.671Z,5.03
2018-03-28T17:14:50.874Z,6.43
2018-03-28T17:17:19.878Z,4.93
2018-03-28T17:19:48.218Z,6.77
2018-03-28T17:22:16.436Z,5.03
2018-03-28T17:24:44.788Z,5.13
2018-03-28T17:27:13.068Z,12.10
2018-03-28T17:29:42.062Z,5.23
2018-03-28T17:32:10.335Z,4.70
2018-03-28T17:34:38.621Z,5.60
2018-03-28T17:37:06.926Z,5.30
2018-03-28T17:39:35.150Z,6.03
2018-03-28T17:42:05.114Z,5.40
2018-03-28T17:44:33.364Z,3.93
2018-03-28T17:47:01.898Z,4.40
2018-03-28T17:49:30.249Z,4.63
2018-03-28T17:51:58.488Z,4.50
2018-03-28T17:54:27.544Z,5.07
2018-03-28T17:56:55.832Z,4.37
2018-03-28T17:59:24.168Z,4.13
2018-03-28T18:01:52.434Z,8.30
2018-03-28T18:04:21.619Z,5.40
2018-03-28T18:09:26.807Z,5.20
2018-03-28T18:11:55.026Z,5.30
2018-03-28T18:14:23.461Z,5.50
2018-03-28T18:16:52.434Z,8.17
2018-03-28T18:19:20.731Z,5.30
2018-03-28T18:21:48.978Z,13.73
2018-03-28T18:24:18.114Z,5.00
2018-03-28T18:26:46.408Z,2.47
2018-03-28T18:29:14.683Z,2.30
2018-03-28T18:31:42.926Z,4.57
2018-03-28T18:34:11.197Z,4.60
2018-03-28T18:36:39.460Z,5.53
2018-03-28T18:39:08.145Z,5.73
2018-03-28T18:41:36.391Z,6.83
2018-03-28T18:44:05.477Z,6.77
2018-03-28T18:46:33.752Z,9.63
2018-03-28T18:49:02.042Z,6.43
2018-03-28T18:51:30.268Z,6.27
2018-03-28T18:53:58.612Z,3.80
2018-03-28T18:56:27.305Z,2.20
2018-03-28T18:58:56.500Z,1.10
2018-03-28T19:01:25.494Z,1.33
2018-03-28T19:03:53.787Z,1.17
2018-03-28T19:06:22.024Z,1.40
2018-03-28T19:08:50.298Z,1.90
2018-03-28T19:11:18.542Z,1.90
2018-03-28T19:13:46.779Z,3.53
2018-03-28T19:16:15.105Z,4.07
2018-03-28T19:18:44.285Z,4.33
2018-03-28T19:21:12.559Z,5.73
2018-03-28T19:23:40.820Z,7.10
2018-03-28T19:26:09.820Z,9.77
2018-03-28T19:28:38.082Z,10.83
2018-03-28T19:31:07.917Z,7.13
2018-03-28T19:33:36.151Z,7.70
2018-03-28T19:36:04.408Z,4.23
2018-03-28T19:38:34.325Z,3.50
2018-03-28T19:41:02.559Z,2.70
2018-03-28T19:43:30.858Z,3.50
2018-03-28T19:45:59.057Z,2.90
2018-03-28T19:48:27.300Z,2.87
2018-03-28T19:50:55.585Z,3.23
2018-03-28T19:53:23.818Z,3.33
2018-03-28T19:55:52.065Z,3.73
2018-03-28T19:58:20.312Z,5.40
2018-03-28T20:00:48.527Z,5.87
2018-03-28T20:03:17.576Z,6.00
2018-03-28T20:05:45.890Z,5.43
2018-03-28T20:08:15.152Z,6.07
2018-03-28T20:10:43.390Z,7.63
2018-03-28T20:13:11.655Z,11.23
2018-03-28T20:15:40.733Z,9.53
2018-03-28T20:18:13.349Z,8.47
2018-03-28T20:20:41.604Z,10.27
2018-03-28T20:23:10.595Z,10.23
2018-03-28T20:25:39.013Z,10.47
2018-03-28T20:28:07.945Z,12.13
2018-03-28T20:30:36.169Z,11.90
2018-03-28T20:33:04.506Z,12.33
2018-03-28T20:35:32.737Z,11.67
2018-03-28T20:38:01.005Z,12.87
2018-03-28T20:40:29.235Z,12.57
2018-03-28T20:42:58.251Z,12.00
2018-03-28T20:45:26.540Z,12.83
2018-03-28T20:47:54.770Z,12.50
2018-03-28T20:50:23.050Z,12.43
2018-03-28T20:52:51.347Z,12.43
2018-03-28T20:55:19.616Z,11.43
2018-03-28T20:57:47.852Z,12.30
2018-03-28T21:00:16.869Z,12.50
2018-03-28T21:02:45.922Z,12.60
2018-03-28T21:05:15.043Z,11.10
2018-03-28T21:07:44.100Z,15.70
2018-03-28T21:10:12.531Z,14.13
2018-03-28T21:12:40.846Z,10.80
2018-03-28T21:15:10.031Z,10.47
2018-03-28T21:17:38.318Z,9.30
2018-03-28T21:20:07.377Z,15.47
2018-03-28T21:22:35.721Z,16.53
2018-03-28T21:25:03.965Z,18.60
2018-03-28T21:27:32.528Z,17.60
2018-03-28T21:30:00.794Z,18.63
2018-03-28T21:32:29.115Z,16.27
2018-03-28T21:34:57.394Z,17.47
2018-03-28T21:37:26.505Z,16.60
2018-03-28T21:39:54.931Z,16.97
2018-03-28T21:42:23.162Z,17.67
2018-03-28T21:44:51.448Z,17.90
2018-03-28T21:47:20.009Z,17.83
2018-03-28T21:49:48.256Z,18.97
2018-03-28T21:52:16.567Z,18.93
2018-03-28T21:54:45.836Z,19.50
2018-03-28T21:57:14.118Z,24.80
2018-03-28T21:59:43.699Z,24.70
2018-03-28T22:02:12.103Z,18.80
2018-03-28T22:04:40.377Z,19.07
2018-03-28T22:07:09.306Z,18.90
2018-03-28T22:09:37.555Z,18.23
2018-03-28T22:12:07.810Z,19.20
2018-03-28T22:14:37.570Z,20.10
2018-03-28T22:17:05.953Z,21.93
2018-03-28T22:19:34.982Z,22.50
2018-03-28T22:22:03.246Z,23.87
2018-03-28T22:24:31.575Z,22.60
2018-03-28T22:26:59.831Z,23.20
2018-03-28T22:29:28.336Z,23.33
2018-03-28T22:31:56.545Z,24.47
2018-03-28T22:34:25.246Z,21.57
2018-03-28T22:36:54.257Z,20.67
2018-03-28T22:39:22.533Z,22.53
2018-03-28T22:41:50.775Z,20.20
2018-03-28T22:44:19.038Z,19.73
2018-03-28T22:46:47.274Z,20.30
2018-03-28T22:49:15.744Z,17.37
2018-03-28T22:51:43.998Z,15.40
2018-03-28T22:54:12.382Z,13.57
2018-03-28T22:56:40.605Z,14.23
2018-03-28T22:59:09.308Z,13.53
2018-03-28T23:01:37.564Z,12.97
2018-03-28T23:04:07.316Z,12.37
2018-03-28T23:06:35.755Z,12.83
2018-03-28T23:09:04.094Z,9.90
2018-03-28T23:11:33.034Z,9.13
2018-03-28T23:14:02.049Z,9.60
2018-03-28T23:16:30.927Z,8.37
2018-03-28T23:18:59.133Z,8.83
2018-03-28T23:21:27.414Z,8.73
2018-03-28T23:23:55.673Z,9.80
2018-03-28T23:26:24.833Z,9.20
2018-03-28T23:28:53.107Z,11.37
2018-03-28T23:31:21.330Z,8.40
2018-03-28T23:33:49.551Z,8.87
2018-03-28T23:36:17.854Z,9.20
2018-03-28T23:38:46.078Z,10.33
2018-03-28T23:41:14.390Z,8.87
2018-03-28T23:43:42.772Z,8.97
2018-03-28T23:46:10.988Z,9.63
2018-03-28T23:48:39.535Z,9.60
2018-03-28T23:51:07.807Z,10.83
2018-03-28T23:53:36.758Z,10.37
2018-03-28T23:56:05.009Z,10.83
2018-03-28T23:58:33.451Z,10.53
